Hauptseite
METAR-TAF:

METAR-TAF

Flughäfen :

Verkehrslandeplatz Mönchengladbach

Mönchengladbach, Deutschland

Breite: 51-13-49N, Länge: 006-30-16E, Höhe: 38 m

Beobachtung

Neuester Wetterbericht von vor 23 Minuten, um 09:50 UTC
Wind 12 kt aus Südost
Temperatur 8°C
Luftfeuchtigkeit 76%
Luftdruck 1028 hPa
Sichtweite: 8000 m

METAR: EDLN 160950Z 13012KT 8000 NSC 08/04 Q1028

Zeit: 11:13 (10:13 UTC)

Prognose

Neuester Wetterbericht von vor 2 Stunden und 13 Minuten, um 08:00 UTC
Gültige Prognose vom 16 um 09 UTC bis 16 um 18 UTC
Wind 7 kt aus Ost/Südost
Sichtweite 10 km oder mehr
keine Wolken unter 1500 m und keine Kumulonimbus oder Gewitterwolken

TAF: EDLN 160800Z 1609/1618 12007KT CAVOK

Wetterbeobachtungen und Prognosen von mehr als 4000 Flughäfen (METAR und TAF Bericht).

Die verfügbaren Stationen werden durch gelbe und rote Markierungen auf der Karte dargestellt.

Führen Sie die Maus auf sie, um den Namen der Station zu sehen.

Darauf klicken, um die Beobachtung von Wetterbeobachtungen und Prognosen zu sehen.

Um die Karte zu ändern : klicken Sie auf den grünen Tasten mit einem schwarzen Kreuz Zum Vergrößern, auf den grünen Button mit einem Gedankenstrich zu verkleinern, oder auf die grünen Pfeile für benachbarte Karten.


METAR-TAF: